This is the latest recevied weather packets stored in our database for station/object I3RKE-10. If no packets are shown the sender has not sent any weather packets the latest 10 day(s).
| Time | Temp. | Humidity | Pressure | Rain* | Wind** | Luminosity | Snow |
|---|---|---|---|---|---|---|---|
| 1777439442 | 16.67° C | 65% | 1010.4 hPa | - | - | - | - |
| 1777438542 | 16.11° C | 64% | 1010.3 hPa | - | - | - | - |
| 1777437642 | 16.11° C | 67% | 1010.1 hPa | - | - | - | - |
| 1777436742 | 15.56° C | 67% | 1010.1 hPa | - | - | - | - |
| 1777435842 | 16.11° C | 66% | 1010 hPa | - | - | - | - |
| 1777434941 | 16.11° C | 66% | 1009.8 hPa | - | - | - | - |
| 1777434041 | 15.56° C | 69% | 1009.9 hPa | - | - | - | - |
| 1777433141 | 15° C | 69% | 1009.9 hPa | - | - | - | - |
| 1777432241 | 15.56° C | 69% | 1010 hPa | - | - | - | - |
| 1777431341 | 15.56° C | 68% | 1010 hPa | - | - | - | - |
| 1777430441 | 15.56° C | 68% | 1010 hPa | - | - | - | - |
| 1777429541 | 15° C | 69% | 1010.1 hPa | - | - | - | - |
| 1777428641 | 15.56° C | 67% | 1010 hPa | - | - | - | - |
| 1777427741 | 15° C | 69% | 1010 hPa | - | - | - | - |
| 1777426841 | 15° C | 70% | 1010 hPa | - | - | - | - |
| 1777425941 | 15.56° C | 68% | 1009.8 hPa | - | - | - | - |
| 1777425040 | 15.56° C | 69% | 1009.9 hPa | - | - | - | - |
| 1777424140 | 15.56° C | 71% | 1009.9 hPa | - | - | - | - |
| 1777423240 | 15.56° C | 70% | 1010 hPa | - | - | - | - |
| 1777422340 | 15.56° C | 70% | 1010 hPa | - | - | - | - |
| 1777421440 | 16.11° C | 69% | 1010.2 hPa | - | - | - | - |
| 1777420540 | 16.67° C | 67% | 1010.2 hPa | - | - | - | - |
| 1777419640 | 16.67° C | 68% | 1010.3 hPa | - | - | - | - |
| 1777418740 | 16.67° C | 68% | 1010.4 hPa | - | - | - | - |
| 1777417840 | 17.22° C | 65% | 1010.5 hPa | - | - | - | - |
* Rain since midnight (hover to see other rain measurements)
** Current wind speed in m/s (hover to see current wind gust speed)